createdAt,value
2023-03-28T00:00:31.283Z,3.45
2023-03-28T00:03:22.814Z,9.70
2023-03-28T00:06:13.997Z,7.03
2023-03-28T00:09:01.529Z,2.90
2023-03-28T00:11:48.888Z,5.65
2023-03-28T00:14:37.585Z,10.32
2023-03-28T00:17:25.196Z,4.50
2023-03-28T00:20:14.468Z,6.32
2023-03-28T00:23:04.162Z,3.15
2023-03-28T00:25:51.478Z,5.22
2023-03-28T00:28:39.338Z,3.50
2023-03-28T00:31:26.934Z,5.20
2023-03-28T00:34:14.497Z,4.28
2023-03-28T00:37:04.748Z,6.57
2023-03-28T00:39:52.000Z,7.23
2023-03-28T00:42:42.679Z,5.80
2023-03-28T00:48:18.072Z,5.53
2023-03-28T00:51:05.530Z,3.67
2023-03-28T00:53:54.401Z,5.82
2023-03-28T00:56:45.935Z,5.18
2023-03-28T00:59:34.928Z,6.32
2023-03-28T01:02:22.383Z,4.68
2023-03-28T01:05:09.819Z,8.18
2023-03-28T01:08:21.740Z,6.40
2023-03-28T01:11:09.553Z,4.43
2023-03-28T01:13:59.964Z,5.72
2023-03-28T01:16:51.312Z,8.60
2023-03-28T01:19:59.242Z,7.10
2023-03-28T01:23:34.661Z,8.95
2023-03-28T01:26:30.329Z,8.32
2023-03-28T01:29:51.219Z,7.13
2023-03-28T01:32:53.716Z,6.00
2023-03-28T01:36:07.619Z,5.53
2023-03-28T01:39:04.967Z,5.95
2023-03-28T01:42:36.341Z,5.18
2023-03-28T01:45:26.462Z,4.78
2023-03-28T01:48:25.595Z,10.57
2023-03-28T01:51:43.462Z,11.18
2023-03-28T01:54:41.860Z,9.50
2023-03-28T01:57:45.054Z,5.45
2023-03-28T02:00:37.339Z,7.88
2023-03-28T02:03:33.126Z,6.80
2023-03-28T02:06:28.181Z,11.10
2023-03-28T02:09:24.117Z,12.23
2023-03-28T02:12:28.594Z,5.60
2023-03-28T02:15:32.121Z,6.53
2023-03-28T02:18:47.779Z,7.30
2023-03-28T02:22:24.968Z,4.88
2023-03-28T02:25:49.539Z,7.40
2023-03-28T02:28:56.850Z,6.78
2023-03-28T02:32:05.373Z,9.25
2023-03-28T02:34:54.377Z,6.68
2023-03-28T02:37:44.762Z,7.32
2023-03-28T02:41:18.031Z,10.05
2023-03-28T02:44:20.952Z,5.93
2023-03-28T02:47:33.012Z,11.57
2023-03-28T02:50:36.048Z,19.30
2023-03-28T02:53:37.366Z,19.20
2023-03-28T02:56:51.346Z,13.88
2023-03-28T03:02:51.633Z,8.95
2023-03-28T03:05:39.660Z,8.90
2023-03-28T03:08:27.896Z,6.28
2023-03-28T03:11:17.895Z,8.93
2023-03-28T03:14:07.698Z,12.93
2023-03-28T03:16:55.131Z,8.82
2023-03-28T03:19:43.540Z,12.30
2023-03-28T03:22:31.866Z,9.18
2023-03-28T03:25:19.671Z,8.70
2023-03-28T03:28:36.194Z,9.95
2023-03-28T03:31:25.537Z,11.00
2023-03-28T03:34:34.143Z,9.88
2023-03-28T03:37:22.604Z,12.50
2023-03-28T03:40:10.479Z,10.95
2023-03-28T03:43:00.741Z,10.80
2023-03-28T03:45:48.874Z,8.48
2023-03-28T03:48:36.159Z,9.43
2023-03-28T03:51:23.414Z,11.02
2023-03-28T03:54:14.522Z,9.55
2023-03-28T03:57:03.027Z,13.43
2023-03-28T03:59:51.086Z,10.60
2023-03-28T04:02:39.688Z,9.20
2023-03-28T04:05:27.243Z,14.55
2023-03-28T04:08:25.608Z,11.15
2023-03-28T04:11:13.360Z,14.80
2023-03-28T04:14:04.460Z,17.52
2023-03-28T04:16:53.991Z,13.27
2023-03-28T04:19:41.603Z,12.15
2023-03-28T04:22:29.932Z,10.07
2023-03-28T04:25:21.829Z,14.80
2023-03-28T04:28:09.953Z,8.68
2023-03-28T04:31:12.513Z,12.70
2023-03-28T04:34:20.136Z,13.27
2023-03-28T04:37:20.627Z,15.45
2023-03-28T04:40:16.303Z,11.98
2023-03-28T04:43:08.873Z,11.43
2023-03-28T04:48:47.377Z,9.60
2023-03-28T04:51:44.842Z,8.80
2023-03-28T04:54:32.222Z,8.93
2023-03-28T04:57:28.745Z,14.93
2023-03-28T05:00:22.301Z,12.93
2023-03-28T05:03:25.079Z,10.60
2023-03-28T05:06:21.834Z,7.80
2023-03-28T05:09:11.187Z,11.05
2023-03-28T05:12:04.401Z,12.23
2023-03-28T05:14:55.541Z,6.95
2023-03-28T05:17:42.970Z,8.90
2023-03-28T05:20:56.516Z,11.25
2023-03-28T05:23:43.881Z,10.45
2023-03-28T05:26:41.637Z,12.98
2023-03-28T05:29:29.371Z,12.57
2023-03-28T05:32:16.814Z,15.82
2023-03-28T05:35:10.290Z,10.48
2023-03-28T05:37:57.767Z,10.93
2023-03-28T05:40:45.617Z,19.50
2023-03-28T05:43:33.005Z,10.88
2023-03-28T05:46:20.740Z,9.80
2023-03-28T05:49:08.907Z,13.93
2023-03-28T05:51:56.236Z,9.98
2023-03-28T05:54:50.050Z,12.88
2023-03-28T05:57:39.051Z,11.07
2023-03-28T06:00:27.099Z,9.73
2023-03-28T06:03:17.373Z,8.98
2023-03-28T06:06:07.213Z,13.52
2023-03-28T06:08:54.636Z,6.07
2023-03-28T06:11:42.841Z,8.98
2023-03-28T06:14:32.022Z,9.43
2023-03-28T06:17:24.543Z,11.35
2023-03-28T06:20:16.110Z,5.78
2023-03-28T06:23:04.252Z,7.65
2023-03-28T06:25:52.176Z,8.68
2023-03-28T06:28:41.250Z,7.03
2023-03-28T06:31:51.732Z,5.18
2023-03-28T06:34:39.450Z,6.00
2023-03-28T06:37:27.190Z,9.85
2023-03-28T06:40:21.581Z,6.72
2023-03-28T06:43:08.935Z,11.00
2023-03-28T06:46:22.440Z,9.90
2023-03-28T06:49:09.699Z,6.38
2023-03-28T06:52:15.877Z,6.78
2023-03-28T06:55:05.619Z,9.32
2023-03-28T06:57:53.076Z,8.95
2023-03-28T07:00:46.871Z,8.23
2023-03-28T07:03:59.643Z,6.50
2023-03-28T07:06:47.682Z,8.73
2023-03-28T07:09:36.153Z,7.75
2023-03-28T07:12:33.480Z,6.57
2023-03-28T07:15:20.817Z,8.63
2023-03-28T07:18:10.748Z,5.85
2023-03-28T07:21:04.050Z,6.78
2023-03-28T07:23:52.240Z,6.25
2023-03-28T07:26:44.799Z,7.22
2023-03-28T07:29:32.135Z,5.28
2023-03-28T07:32:19.388Z,4.75
2023-03-28T07:35:08.626Z,7.22
2023-03-28T07:38:06.470Z,5.85
2023-03-28T07:41:00.897Z,7.53
2023-03-28T07:43:48.452Z,5.25
2023-03-28T07:46:37.762Z,7.93
2023-03-28T07:49:25.617Z,5.43
2023-03-28T07:52:13.878Z,3.85
2023-03-28T07:55:01.561Z,5.15
2023-03-28T07:57:52.864Z,5.10
2023-03-28T08:00:55.090Z,4.45
2023-03-28T08:04:03.646Z,3.97
2023-03-28T08:07:02.901Z,2.38
2023-03-28T08:16:39.226Z,5.75
2023-03-28T08:19:26.738Z,4.75
2023-03-28T08:22:32.332Z,7.25
2023-03-28T08:32:14.197Z,5.93
2023-03-28T08:35:03.348Z,7.15
2023-03-28T08:37:53.221Z,6.50
2023-03-28T08:40:47.798Z,7.43
2023-03-28T08:44:02.721Z,4.53
2023-03-28T08:46:55.120Z,4.27
2023-03-28T08:49:50.127Z,7.88
2023-03-28T08:52:38.496Z,4.65
2023-03-28T08:55:40.637Z,6.00
2023-03-28T09:01:47.448Z,11.80
2023-03-28T09:04:36.898Z,4.95
2023-03-28T09:08:04.184Z,6.68
2023-03-28T09:11:17.712Z,8.32
2023-03-28T09:14:05.343Z,8.63
2023-03-28T09:17:22.332Z,5.95
2023-03-28T09:20:22.701Z,6.43
2023-03-28T09:23:28.266Z,5.07
2023-03-28T09:26:39.957Z,5.72
2023-03-28T09:32:39.768Z,3.28
2023-03-28T09:35:29.392Z,6.22
2023-03-28T09:38:22.304Z,3.65
2023-03-28T09:41:18.998Z,3.17
2023-03-28T09:44:13.610Z,4.70
2023-03-28T09:47:04.732Z,6.65
2023-03-28T09:50:12.839Z,4.80
2023-03-28T09:53:04.232Z,5.82
2023-03-28T09:56:03.285Z,5.70
2023-03-28T09:58:57.628Z,3.88
2023-03-28T10:02:02.578Z,6.72
2023-03-28T10:04:57.585Z,5.93
2023-03-28T10:08:19.007Z,5.30
2023-03-28T10:11:20.068Z,7.28
2023-03-28T10:14:28.315Z,5.80
2023-03-28T10:17:34.225Z,4.10
2023-03-28T10:20:24.962Z,5.15
2023-03-28T10:23:17.644Z,4.68
2023-03-28T10:26:06.132Z,6.18
2023-03-28T10:28:58.214Z,3.63
2023-03-28T10:31:50.154Z,4.97
2023-03-28T10:35:08.218Z,3.30
2023-03-28T10:38:05.722Z,3.88
2023-03-28T10:41:20.545Z,3.42
2023-03-28T10:44:32.844Z,4.25
2023-03-28T10:47:25.382Z,2.83
2023-03-28T10:50:25.980Z,3.40
2023-03-28T10:53:22.190Z,4.97
2023-03-28T10:56:38.858Z,4.57
2023-03-28T10:59:47.650Z,4.97
2023-03-28T11:03:10.274Z,7.85
2023-03-28T11:06:27.491Z,5.60
2023-03-28T11:09:25.426Z,4.40
2023-03-28T11:13:02.786Z,6.88
2023-03-28T11:16:13.224Z,4.70
2023-03-28T11:19:19.825Z,5.45
2023-03-28T11:23:05.091Z,5.30
2023-03-28T11:26:09.482Z,5.22
2023-03-28T11:29:12.205Z,9.07
2023-03-28T11:32:29.764Z,4.28
2023-03-28T11:35:32.632Z,5.03
2023-03-28T11:38:31.141Z,4.28
2023-03-28T11:41:30.924Z,4.82
2023-03-28T11:44:33.449Z,4.70
2023-03-28T11:47:48.129Z,4.20
2023-03-28T11:50:55.601Z,6.20
2023-03-28T11:54:03.756Z,4.03
2023-03-28T11:57:33.256Z,4.82
2023-03-28T12:04:14.732Z,5.00
2023-03-28T12:07:11.710Z,3.75
2023-03-28T12:10:19.599Z,6.30
2023-03-28T12:13:19.872Z,4.18
2023-03-28T12:16:40.718Z,5.45
2023-03-28T12:19:42.732Z,3.25
2023-03-28T12:22:38.038Z,11.35
2023-03-28T12:25:31.389Z,3.75
2023-03-28T12:28:48.195Z,7.68
2023-03-28T12:31:56.599Z,3.08
2023-03-28T12:35:27.220Z,3.40
2023-03-28T12:38:26.879Z,5.18
2023-03-28T12:41:28.860Z,4.22
2023-03-28T12:44:24.473Z,2.70
2023-03-28T12:47:29.831Z,4.32
2023-03-28T12:50:28.218Z,3.28
2023-03-28T12:53:17.303Z,5.20
2023-03-28T12:56:04.721Z,9.38
2023-03-28T12:58:53.122Z,3.88
2023-03-28T13:01:52.175Z,3.17
2023-03-28T13:05:08.994Z,4.75
2023-03-28T13:08:05.846Z,5.93
2023-03-28T13:11:02.607Z,5.40
2023-03-28T13:14:18.216Z,3.15
2023-03-28T13:17:26.349Z,5.60
2023-03-28T13:20:16.505Z,4.90
2023-03-28T13:23:07.906Z,2.57
2023-03-28T13:25:57.790Z,5.78
2023-03-28T13:28:51.680Z,3.22
2023-03-28T13:31:42.891Z,3.80
2023-03-28T13:34:33.944Z,6.88
2023-03-28T13:37:43.431Z,2.92
2023-03-28T13:40:54.787Z,4.20
2023-03-28T13:43:48.312Z,3.83
2023-03-28T13:46:42.001Z,5.93
2023-03-28T13:49:29.443Z,4.28
2023-03-28T13:52:23.522Z,4.88
2023-03-28T13:55:40.675Z,4.40
2023-03-28T13:58:29.137Z,3.38
2023-03-28T14:01:24.433Z,6.88
2023-03-28T14:04:19.575Z,6.32
2023-03-28T14:07:06.989Z,5.30
2023-03-28T14:09:56.335Z,5.45
2023-03-28T14:12:43.844Z,3.55
2023-03-28T14:15:37.152Z,8.10
2023-03-28T14:18:41.377Z,4.70
2023-03-28T14:21:28.679Z,5.38
2023-03-28T14:24:22.299Z,6.30
2023-03-28T14:27:15.146Z,6.05
2023-03-28T14:30:05.157Z,4.43
2023-03-28T14:32:58.997Z,4.75
2023-03-28T14:35:59.379Z,6.40
2023-03-28T14:38:47.843Z,7.38
2023-03-28T14:41:37.446Z,6.90
2023-03-28T14:44:25.816Z,5.38
2023-03-28T14:47:33.798Z,4.88
2023-03-28T14:50:22.333Z,5.30
2023-03-28T14:53:19.940Z,7.10
2023-03-28T14:56:10.447Z,9.68
2023-03-28T14:59:02.884Z,4.28
2023-03-28T15:01:51.645Z,7.60
2023-03-28T15:04:39.048Z,4.97
2023-03-28T15:07:29.099Z,4.10
2023-03-28T15:10:19.659Z,4.70
2023-03-28T15:13:44.524Z,5.60
2023-03-28T15:16:35.934Z,4.43
2023-03-28T15:19:32.189Z,6.20
2023-03-28T15:22:24.548Z,3.88
2023-03-28T15:25:13.817Z,6.47
2023-03-28T15:28:06.808Z,7.43
2023-03-28T15:30:58.024Z,5.70
2023-03-28T15:33:47.537Z,4.47
2023-03-28T15:36:34.865Z,7.07
2023-03-28T15:39:25.624Z,5.35
2023-03-28T15:42:19.287Z,7.50
2023-03-28T15:45:22.592Z,5.13
2023-03-28T15:48:20.117Z,4.68
2023-03-28T15:51:26.128Z,5.93
2023-03-28T15:54:28.173Z,5.22
2023-03-28T15:57:21.442Z,7.28
2023-03-28T16:00:41.844Z,4.28
2023-03-28T16:03:34.173Z,5.50
2023-03-28T16:09:20.803Z,5.60
2023-03-28T16:12:13.324Z,3.63
2023-03-28T16:15:04.360Z,5.70
2023-03-28T16:18:12.057Z,7.13
2023-03-28T16:21:11.588Z,5.65
2023-03-28T16:23:58.980Z,7.93
2023-03-28T16:26:47.525Z,6.40
2023-03-28T16:29:34.864Z,6.43
2023-03-28T16:32:24.113Z,3.88
2023-03-28T16:35:14.647Z,5.93
2023-03-28T16:38:02.621Z,3.97
2023-03-28T16:40:50.836Z,5.55
2023-03-28T16:43:38.845Z,5.55
2023-03-28T16:46:26.351Z,5.93
2023-03-28T16:49:13.890Z,5.88
2023-03-28T16:52:01.094Z,2.95
2023-03-28T16:54:48.757Z,6.40
2023-03-28T16:57:37.007Z,3.47
2023-03-28T17:00:24.549Z,5.28
2023-03-28T17:03:12.014Z,6.43
2023-03-28T17:06:09.956Z,3.22
2023-03-28T17:08:58.861Z,3.95
2023-03-28T17:11:46.135Z,5.13
2023-03-28T17:14:33.313Z,3.60
2023-03-28T17:17:20.549Z,1.98
2023-03-28T17:20:08.331Z,6.03
2023-03-28T17:22:55.808Z,5.38
2023-03-28T17:26:01.609Z,6.57
2023-03-28T17:28:50.877Z,2.63
2023-03-28T17:31:38.660Z,3.97
2023-03-28T17:34:26.512Z,3.92
2023-03-28T17:37:14.859Z,6.28
2023-03-28T17:40:03.670Z,3.22
2023-03-28T17:42:51.282Z,3.38
2023-03-28T17:45:38.575Z,5.10
2023-03-28T17:48:26.084Z,4.18
2023-03-28T17:51:14.256Z,4.18
2023-03-28T17:54:06.825Z,4.53
2023-03-28T17:56:54.329Z,2.63
2023-03-28T17:59:41.699Z,2.85
2023-03-28T18:02:29.420Z,4.60
2023-03-28T18:05:31.704Z,3.83
2023-03-28T18:08:19.122Z,2.67
2023-03-28T18:11:14.110Z,4.80
2023-03-28T18:14:01.874Z,2.35
2023-03-28T18:16:49.364Z,5.07
2023-03-28T18:19:36.732Z,3.55
2023-03-28T18:22:23.973Z,3.80
2023-03-28T18:25:11.509Z,3.92
2023-03-28T18:27:58.763Z,3.72
2023-03-28T18:30:46.228Z,4.72
2023-03-28T18:33:33.514Z,3.72
2023-03-28T18:36:21.027Z,5.15
2023-03-28T18:39:10.315Z,6.43
2023-03-28T18:41:57.742Z,3.15
2023-03-28T18:44:45.176Z,3.08
2023-03-28T18:47:32.576Z,3.95
2023-03-28T18:50:19.969Z,3.85
2023-03-28T18:53:07.332Z,5.18
2023-03-28T18:55:55.416Z,4.97
2023-03-28T18:58:43.894Z,4.05
2023-03-28T19:01:31.769Z,4.32
2023-03-28T19:04:23.778Z,7.43
2023-03-28T19:07:13.447Z,4.88
2023-03-28T19:10:00.864Z,4.25
2023-03-28T19:12:48.178Z,6.05
2023-03-28T19:15:35.410Z,3.85
2023-03-28T19:18:22.611Z,5.35
2023-03-28T19:21:11.746Z,2.13
2023-03-28T19:23:59.260Z,4.72
2023-03-28T19:26:46.583Z,7.65
2023-03-28T19:29:33.804Z,4.60
2023-03-28T19:32:21.426Z,6.85
2023-03-28T19:35:09.266Z,4.47
2023-03-28T19:37:56.677Z,3.75
2023-03-28T19:40:44.404Z,3.85
2023-03-28T19:43:31.636Z,3.97
2023-03-28T19:46:32.533Z,4.18
2023-03-28T19:49:21.793Z,4.45
2023-03-28T19:52:10.096Z,4.43
2023-03-28T19:54:57.261Z,2.80
2023-03-28T19:57:44.506Z,3.97
2023-03-28T20:00:32.363Z,4.55
2023-03-28T20:03:19.626Z,5.80
2023-03-28T20:06:09.062Z,5.78
2023-03-28T20:08:56.680Z,6.60
2023-03-28T20:11:44.046Z,4.80
2023-03-28T20:14:31.781Z,4.55
2023-03-28T20:17:19.064Z,5.85
2023-03-28T20:20:07.074Z,5.85
2023-03-28T20:22:54.373Z,5.38
2023-03-28T20:25:41.760Z,5.20
2023-03-28T20:28:32.080Z,5.47
2023-03-28T20:31:19.637Z,4.57
2023-03-28T20:34:06.969Z,5.13
2023-03-28T20:36:56.563Z,6.10
2023-03-28T20:39:48.168Z,5.72
2023-03-28T20:42:35.441Z,8.05
2023-03-28T20:45:26.009Z,6.72
2023-03-28T20:48:16.381Z,5.05
2023-03-28T20:51:05.930Z,5.07
2023-03-28T20:53:59.196Z,5.18
2023-03-28T20:56:46.643Z,6.78
2023-03-28T20:59:34.694Z,4.50
2023-03-28T21:02:23.335Z,5.05
2023-03-28T21:05:12.456Z,6.32
2023-03-28T21:08:00.392Z,6.40
2023-03-28T21:10:53.724Z,6.50
2023-03-28T21:13:41.318Z,5.43
2023-03-28T21:16:30.609Z,5.90
2023-03-28T21:19:19.512Z,4.47
2023-03-28T21:22:07.005Z,4.55
2023-03-28T21:24:54.243Z,4.50
2023-03-28T21:27:41.543Z,5.32
2023-03-28T21:30:30.874Z,6.55
2023-03-28T21:33:18.171Z,5.85
2023-03-28T21:36:07.376Z,5.60
2023-03-28T21:38:55.757Z,4.18
2023-03-28T21:41:43.003Z,5.53
2023-03-28T21:44:30.803Z,4.38
2023-03-28T21:47:18.058Z,5.63
2023-03-28T21:50:05.951Z,3.85
2023-03-28T21:52:53.402Z,4.68
2023-03-28T21:55:42.130Z,6.57
2023-03-28T21:58:32.777Z,5.55
2023-03-28T22:01:20.504Z,4.57
2023-03-28T22:04:08.135Z,5.15
2023-03-28T22:06:55.673Z,4.05
2023-03-28T22:09:43.166Z,3.65
2023-03-28T22:12:31.680Z,6.95
2023-03-28T22:15:52.609Z,5.70
2023-03-28T22:18:41.707Z,5.68
2023-03-28T22:21:31.617Z,3.90
2023-03-28T22:24:19.097Z,4.32
2023-03-28T22:27:07.668Z,3.55
2023-03-28T22:29:54.823Z,2.95
2023-03-28T22:32:42.435Z,4.05
2023-03-28T22:35:32.440Z,4.13
2023-03-28T22:38:19.796Z,3.95
2023-03-28T22:41:07.653Z,2.45
2023-03-28T22:43:55.109Z,4.60
2023-03-28T22:49:59.671Z,4.43
2023-03-28T22:52:50.406Z,3.53
2023-03-28T22:55:38.384Z,4.95
2023-03-28T22:58:50.992Z,3.70
2023-03-28T23:01:41.861Z,3.63
2023-03-28T23:05:05.973Z,2.92
2023-03-28T23:11:10.900Z,4.75
2023-03-28T23:17:14.952Z,4.97
2023-03-28T23:20:02.351Z,3.58
2023-03-28T23:22:49.652Z,3.10
2023-03-28T23:25:37.247Z,4.90
2023-03-28T23:28:24.479Z,5.63
2023-03-28T23:31:12.284Z,5.50
2023-03-28T23:33:59.613Z,5.25
2023-03-28T23:36:41.557Z,5.03
